createdAt,value
2023-05-09T00:01:20.249Z,8.59
2023-05-09T00:03:46.740Z,8.57
2023-05-09T00:06:13.273Z,8.53
2023-05-09T00:08:39.714Z,8.51
2023-05-09T00:11:06.198Z,8.49
2023-05-09T00:13:33.417Z,8.47
2023-05-09T00:16:00.032Z,8.44
2023-05-09T00:18:26.848Z,8.42
2023-05-09T00:20:53.328Z,8.40
2023-05-09T00:23:19.882Z,8.39
2023-05-09T00:25:46.332Z,8.38
2023-05-09T00:28:12.797Z,8.37
2023-05-09T00:30:39.279Z,8.36
2023-05-09T00:33:05.825Z,8.36
2023-05-09T00:35:32.416Z,8.34
2023-05-09T00:37:58.863Z,8.33
2023-05-09T00:40:25.301Z,8.30
2023-05-09T00:42:51.766Z,8.29
2023-05-09T00:45:18.340Z,8.25
2023-05-09T00:47:44.806Z,8.22
2023-05-09T00:50:11.406Z,8.18
2023-05-09T00:52:38.849Z,8.16
2023-05-09T00:55:06.050Z,8.15
2023-05-09T00:57:32.544Z,8.12
2023-05-09T01:00:00.131Z,8.09
2023-05-09T01:02:27.666Z,8.06
2023-05-09T01:04:54.202Z,8.06
2023-05-09T01:07:33.388Z,8.04
2023-05-09T01:10:11.784Z,8.03
2023-05-09T01:13:04.693Z,8.01
2023-05-09T01:15:41.125Z,7.98
2023-05-09T01:18:14.654Z,7.95
2023-05-09T01:20:54.384Z,7.92
2023-05-09T01:23:45.172Z,7.90
2023-05-09T01:26:42.705Z,7.87
2023-05-09T01:29:33.874Z,7.83
2023-05-09T01:32:04.529Z,7.80
2023-05-09T01:34:32.575Z,7.77
2023-05-09T01:37:00.217Z,7.74
2023-05-09T01:39:27.536Z,7.72
2023-05-09T01:41:56.725Z,7.68
2023-05-09T01:44:25.258Z,7.61
2023-05-09T01:46:54.720Z,7.58
2023-05-09T01:49:22.497Z,7.56
2023-05-09T01:51:49.981Z,7.52
2023-05-09T01:54:17.578Z,7.48
2023-05-09T01:56:45.683Z,7.46
2023-05-09T01:59:14.501Z,7.43
2023-05-09T02:01:41.027Z,7.41
2023-05-09T02:04:07.629Z,7.40
2023-05-09T02:06:36.135Z,7.39
2023-05-09T02:09:02.948Z,7.38
2023-05-09T02:11:29.412Z,7.38
2023-05-09T02:13:55.901Z,7.36
2023-05-09T02:16:22.396Z,7.34
2023-05-09T02:18:48.916Z,7.33
2023-05-09T02:21:15.564Z,7.31
2023-05-09T02:23:42.101Z,7.30
2023-05-09T02:26:09.158Z,7.29
2023-05-09T02:28:36.621Z,7.27
2023-05-09T02:31:06.338Z,7.25
2023-05-09T02:33:35.803Z,7.22
2023-05-09T02:36:02.744Z,7.19
2023-05-09T02:38:29.293Z,7.18
2023-05-09T02:40:56.055Z,7.19
2023-05-09T02:43:22.567Z,7.18
2023-05-09T02:45:49.070Z,7.19
2023-05-09T02:48:15.587Z,7.19
2023-05-09T02:50:41.994Z,7.18
2023-05-09T02:53:08.467Z,7.17
2023-05-09T02:55:34.987Z,7.15
2023-05-09T02:58:12.098Z,7.11
2023-05-09T03:00:39.732Z,7.08
2023-05-09T03:03:06.324Z,7.07
2023-05-09T03:05:32.819Z,7.06
2023-05-09T03:07:59.307Z,7.07
2023-05-09T03:10:25.730Z,7.06
2023-05-09T03:12:52.252Z,7.05
2023-05-09T03:15:18.842Z,7.03
2023-05-09T03:17:45.397Z,7.04
2023-05-09T03:20:11.907Z,7.03
2023-05-09T03:22:38.429Z,7.03
2023-05-09T03:25:05.282Z,7.04
2023-05-09T03:27:32.159Z,7.04
2023-05-09T03:29:58.653Z,7.02
2023-05-09T03:32:27.013Z,7.00
2023-05-09T03:34:53.521Z,7.01
2023-05-09T03:37:20.169Z,7.02
2023-05-09T03:39:46.614Z,7.03
2023-05-09T03:42:13.077Z,7.04
2023-05-09T03:44:39.519Z,7.05
2023-05-09T03:47:06.029Z,7.07
2023-05-09T03:49:32.526Z,7.08
2023-05-09T03:51:58.969Z,7.09
2023-05-09T03:54:25.448Z,7.12
2023-05-09T03:56:51.852Z,7.13
2023-05-09T03:59:18.313Z,7.15
2023-05-09T04:01:44.825Z,7.18
2023-05-09T04:04:11.409Z,7.22
2023-05-09T04:06:38.009Z,7.24
2023-05-09T04:09:04.504Z,7.27
2023-05-09T04:11:31.001Z,7.29
2023-05-09T04:13:57.416Z,7.33
2023-05-09T04:16:24.100Z,7.38
2023-05-09T04:18:50.579Z,7.43
2023-05-09T04:21:17.174Z,7.48
2023-05-09T04:23:43.628Z,7.54
2023-05-09T04:26:10.089Z,7.59
2023-05-09T04:28:36.527Z,7.63
2023-05-09T04:31:03.145Z,7.69
2023-05-09T04:33:29.630Z,7.72
2023-05-09T04:35:56.080Z,7.76
2023-05-09T04:38:22.512Z,7.83
2023-05-09T04:40:49.160Z,7.88
2023-05-09T04:43:15.701Z,7.94
2023-05-09T04:45:42.189Z,8.00
2023-05-09T04:48:08.651Z,8.07
2023-05-09T04:50:35.116Z,8.12
2023-05-09T04:53:01.561Z,8.18
2023-05-09T04:55:27.984Z,8.23
2023-05-09T04:57:54.440Z,8.28
2023-05-09T05:00:20.895Z,8.35
2023-05-09T05:02:47.437Z,8.40
2023-05-09T05:05:13.929Z,8.46
2023-05-09T05:07:40.366Z,8.52
2023-05-09T05:10:07.374Z,8.59
2023-05-09T05:12:33.795Z,8.67
2023-05-09T05:15:00.273Z,8.75
2023-05-09T05:17:26.727Z,8.82
2023-05-09T05:19:53.215Z,8.90
2023-05-09T05:22:19.687Z,8.98
2023-05-09T05:24:46.136Z,9.08
2023-05-09T05:27:12.563Z,9.18
2023-05-09T05:29:39.010Z,9.29
2023-05-09T05:32:05.455Z,9.38
2023-05-09T05:34:31.908Z,9.47
2023-05-09T05:36:58.370Z,9.58
2023-05-09T05:39:24.865Z,9.68
2023-05-09T05:41:51.444Z,9.78
2023-05-09T05:44:17.879Z,9.89
2023-05-09T05:46:44.305Z,10.02
2023-05-09T05:49:10.753Z,10.16
2023-05-09T05:51:37.175Z,10.31
2023-05-09T05:54:03.801Z,10.44
2023-05-09T05:56:30.272Z,10.56
2023-05-09T05:58:56.763Z,10.68
2023-05-09T06:01:23.179Z,10.79
2023-05-09T06:03:49.717Z,10.91
2023-05-09T06:06:16.330Z,11.02
2023-05-09T06:08:43.083Z,11.12
2023-05-09T06:11:09.813Z,11.20
2023-05-09T06:13:36.538Z,11.31
2023-05-09T06:16:17.973Z,11.41
2023-05-09T06:18:45.895Z,11.51
2023-05-09T06:21:12.903Z,11.63
2023-05-09T06:23:47.299Z,11.74
2023-05-09T06:26:23.887Z,11.86
2023-05-09T06:28:50.423Z,11.93
2023-05-09T06:31:16.958Z,11.99
2023-05-09T06:33:43.415Z,12.04
2023-05-09T06:36:09.935Z,12.09
2023-05-09T06:38:37.906Z,12.18
2023-05-09T06:41:04.991Z,12.26
2023-05-09T06:43:31.562Z,12.33
2023-05-09T06:45:58.072Z,12.41
2023-05-09T06:48:24.892Z,12.49
2023-05-09T06:50:51.418Z,12.56
2023-05-09T06:53:18.177Z,12.61
2023-05-09T06:55:44.789Z,12.68
2023-05-09T06:58:11.452Z,12.76
2023-05-09T07:00:38.672Z,12.88
2023-05-09T07:03:05.303Z,13.02
2023-05-09T07:05:31.905Z,13.13
2023-05-09T07:07:58.407Z,13.23
2023-05-09T07:10:25.095Z,13.34
2023-05-09T07:12:51.623Z,13.45
2023-05-09T07:15:28.806Z,13.54
2023-05-09T07:18:03.672Z,13.63
2023-05-09T07:20:30.353Z,13.72
2023-05-09T07:22:56.813Z,13.83
2023-05-09T07:25:23.257Z,13.91
2023-05-09T07:27:49.771Z,13.98
2023-05-09T07:30:16.555Z,14.07
2023-05-09T07:32:43.190Z,14.16
2023-05-09T07:35:09.739Z,14.24
2023-05-09T07:37:36.204Z,14.34
2023-05-09T07:40:03.325Z,14.46
2023-05-09T07:42:29.789Z,14.55
2023-05-09T07:44:56.227Z,14.63
2023-05-09T07:47:22.693Z,14.69
2023-05-09T07:49:49.162Z,14.78
2023-05-09T07:52:15.655Z,14.88
2023-05-09T07:54:42.268Z,14.97
2023-05-09T07:57:08.794Z,15.02
2023-05-09T07:59:35.275Z,15.14
2023-05-09T08:02:02.008Z,15.27
2023-05-09T08:04:28.510Z,15.38
2023-05-09T08:06:54.944Z,15.50
2023-05-09T08:09:21.388Z,15.62
2023-05-09T08:11:47.914Z,15.72
2023-05-09T08:14:15.624Z,15.82
2023-05-09T08:16:42.217Z,15.93
2023-05-09T08:19:08.698Z,16.01
2023-05-09T08:21:35.169Z,16.09
2023-05-09T08:24:01.829Z,16.17
2023-05-09T08:26:28.281Z,16.28
2023-05-09T08:28:54.751Z,16.35
2023-05-09T08:31:21.244Z,16.41
2023-05-09T08:33:47.713Z,16.47
2023-05-09T08:36:14.184Z,16.58
2023-05-09T08:38:40.794Z,16.68
2023-05-09T08:41:07.308Z,16.78
2023-05-09T08:43:34.341Z,16.85
2023-05-09T08:46:06.643Z,16.93
2023-05-09T08:48:36.043Z,17.00
2023-05-09T08:51:02.978Z,17.06
2023-05-09T08:53:29.486Z,17.17
2023-05-09T08:55:58.229Z,17.30
2023-05-09T08:58:24.724Z,17.42
2023-05-09T09:00:51.379Z,17.49
2023-05-09T09:03:18.030Z,17.59
2023-05-09T09:05:45.064Z,17.66
2023-05-09T09:08:14.124Z,17.74
2023-05-09T09:10:42.078Z,17.83
2023-05-09T09:13:10.067Z,17.88
2023-05-09T09:15:38.533Z,17.92
2023-05-09T09:18:08.225Z,17.93
2023-05-09T09:20:37.270Z,17.97
2023-05-09T09:23:04.447Z,18.03
2023-05-09T09:25:31.043Z,18.19
2023-05-09T09:27:57.500Z,18.34
2023-05-09T09:30:24.550Z,18.46
2023-05-09T09:32:51.125Z,18.53
2023-05-09T09:35:17.597Z,18.61
2023-05-09T09:37:44.074Z,18.67
2023-05-09T09:40:12.308Z,18.74
2023-05-09T09:42:47.853Z,18.72
2023-05-09T09:45:17.167Z,18.81
2023-05-09T09:47:45.539Z,19.01
2023-05-09T09:50:15.883Z,19.16
2023-05-09T09:52:50.019Z,19.21
2023-05-09T09:55:17.657Z,19.15
2023-05-09T09:57:44.640Z,19.11
2023-05-09T10:00:13.436Z,19.03
2023-05-09T10:02:47.346Z,18.97
2023-05-09T10:05:19.025Z,19.00
2023-05-09T10:07:45.488Z,19.21
2023-05-09T10:10:12.090Z,19.37
2023-05-09T10:12:40.474Z,19.39
2023-05-09T10:15:09.446Z,19.37
2023-05-09T10:17:36.649Z,19.36
2023-05-09T10:20:05.805Z,19.41
2023-05-09T10:22:38.188Z,19.33
2023-05-09T10:25:14.951Z,19.18
2023-05-09T10:27:45.367Z,19.12
2023-05-09T10:30:19.740Z,19.07
2023-05-09T10:33:02.864Z,19.08
2023-05-09T10:35:57.647Z,18.99
2023-05-09T10:38:24.970Z,18.98
2023-05-09T10:40:53.445Z,19.36
2023-05-09T10:43:20.767Z,20.27
2023-05-09T10:45:47.544Z,21.60
2023-05-09T10:48:14.538Z,23.15
2023-05-09T10:50:41.358Z,23.49
2023-05-09T10:53:09.591Z,23.19
2023-05-09T10:55:57.313Z,22.63
2023-05-09T10:58:24.885Z,23.47
2023-05-09T11:00:53.802Z,23.46
2023-05-09T11:03:22.330Z,23.12
2023-05-09T11:05:52.060Z,22.76
2023-05-09T11:08:25.798Z,22.20
2023-05-09T11:10:56.667Z,22.04
2023-05-09T11:13:31.252Z,22.49
2023-05-09T11:16:01.003Z,22.56
2023-05-09T11:18:28.571Z,22.29
2023-05-09T11:20:56.116Z,22.18
2023-05-09T11:23:26.910Z,22.14
2023-05-09T11:26:03.968Z,22.07
2023-05-09T11:28:35.025Z,22.03
2023-05-09T11:31:14.632Z,21.96
2023-05-09T11:33:42.961Z,21.79
2023-05-09T11:36:15.755Z,21.65
2023-05-09T11:38:42.728Z,21.58
2023-05-09T11:41:09.380Z,21.52
2023-05-09T11:43:39.624Z,21.51
2023-05-09T11:46:06.333Z,21.60
2023-05-09T11:48:40.081Z,21.74
2023-05-09T11:51:06.662Z,21.80
2023-05-09T11:53:33.397Z,21.82
2023-05-09T11:56:03.466Z,21.85
2023-05-09T11:58:30.238Z,21.88
2023-05-09T12:00:57.417Z,21.86
2023-05-09T12:03:24.014Z,21.84
2023-05-09T12:05:50.721Z,21.79
2023-05-09T12:08:17.469Z,21.75
2023-05-09T12:10:43.904Z,21.80
2023-05-09T12:13:10.540Z,21.74
2023-05-09T12:15:37.996Z,21.70
2023-05-09T12:18:06.897Z,21.71
2023-05-09T12:20:48.406Z,21.66
2023-05-09T12:23:15.003Z,21.51
2023-05-09T12:25:55.242Z,21.30
2023-05-09T12:28:25.555Z,21.11
2023-05-09T12:30:53.253Z,21.02
2023-05-09T12:33:20.247Z,21.11
2023-05-09T12:35:47.596Z,21.12
2023-05-09T12:38:20.405Z,21.11
2023-05-09T12:41:03.783Z,21.15
2023-05-09T12:43:37.712Z,21.13
2023-05-09T12:46:05.243Z,21.10
2023-05-09T12:48:37.386Z,21.02
2023-05-09T12:51:08.089Z,20.92
2023-05-09T12:53:41.465Z,20.82
2023-05-09T12:56:18.799Z,20.81
2023-05-09T12:58:53.536Z,20.92
2023-05-09T13:01:22.300Z,20.96
2023-05-09T13:03:53.476Z,20.86
2023-05-09T13:06:20.197Z,20.64
2023-05-09T13:08:57.874Z,20.43
2023-05-09T13:11:24.398Z,20.36
2023-05-09T13:13:50.844Z,20.57
2023-05-09T13:16:17.989Z,20.89
2023-05-09T13:18:44.557Z,21.27
2023-05-09T13:21:11.092Z,21.65
2023-05-09T13:23:37.586Z,21.95
2023-05-09T13:26:04.116Z,22.14
2023-05-09T13:28:30.559Z,22.30
2023-05-09T13:30:57.051Z,22.49
2023-05-09T13:33:26.397Z,22.61
2023-05-09T13:35:53.396Z,22.68
2023-05-09T13:38:19.866Z,22.81
2023-05-09T13:40:46.343Z,23.03
2023-05-09T13:43:12.836Z,22.85
2023-05-09T13:45:39.287Z,22.51
2023-05-09T13:48:06.085Z,22.10
2023-05-09T13:50:32.620Z,21.76
2023-05-09T13:52:59.070Z,21.44
2023-05-09T13:55:25.506Z,21.17
2023-05-09T13:57:51.974Z,20.97
2023-05-09T14:00:18.982Z,20.84
2023-05-09T14:02:45.747Z,20.89
2023-05-09T14:05:12.217Z,21.04
2023-05-09T14:07:41.823Z,21.24
2023-05-09T14:10:12.476Z,21.41
2023-05-09T14:12:42.199Z,21.42
2023-05-09T14:15:09.018Z,21.28
2023-05-09T14:17:35.556Z,21.26
2023-05-09T14:20:02.211Z,21.21
2023-05-09T14:22:28.717Z,21.10
2023-05-09T14:24:55.206Z,20.94
2023-05-09T14:27:21.709Z,20.87
2023-05-09T14:29:48.231Z,20.96
2023-05-09T14:32:14.804Z,21.14
2023-05-09T14:34:41.265Z,21.27
2023-05-09T14:37:07.906Z,21.37
2023-05-09T14:39:34.359Z,21.43
2023-05-09T14:42:00.796Z,21.45
2023-05-09T14:44:27.257Z,21.39
2023-05-09T14:46:53.732Z,21.32
2023-05-09T14:49:20.259Z,21.26
2023-05-09T14:51:46.695Z,21.22
2023-05-09T14:54:13.266Z,21.19
2023-05-09T14:56:39.688Z,21.09
2023-05-09T14:59:06.126Z,21.04
2023-05-09T15:01:32.663Z,21.01
2023-05-09T15:03:59.253Z,21.01
2023-05-09T15:06:25.720Z,21.07
2023-05-09T15:08:52.362Z,21.07
2023-05-09T15:11:18.878Z,20.98
2023-05-09T15:13:45.393Z,20.80
2023-05-09T15:16:11.895Z,20.58
2023-05-09T15:18:38.377Z,20.36
2023-05-09T15:21:05.174Z,20.20
2023-05-09T15:23:31.753Z,20.04
2023-05-09T15:25:58.259Z,19.90
2023-05-09T15:28:24.837Z,19.79
2023-05-09T15:30:51.361Z,19.66
2023-05-09T15:33:17.872Z,19.57
2023-05-09T15:35:44.572Z,19.61
2023-05-09T15:38:12.269Z,19.77
2023-05-09T15:40:41.998Z,19.86
2023-05-09T15:43:08.663Z,19.91
2023-05-09T15:45:35.173Z,20.03
2023-05-09T15:48:01.736Z,20.15
2023-05-09T15:50:28.262Z,20.25
2023-05-09T15:52:54.794Z,20.29
2023-05-09T15:55:21.302Z,20.26
2023-05-09T15:57:47.840Z,20.14
2023-05-09T16:00:15.221Z,19.96
2023-05-09T16:02:41.890Z,19.77
2023-05-09T16:05:08.504Z,19.55
2023-05-09T16:07:35.855Z,19.32
2023-05-09T16:10:02.771Z,19.12
2023-05-09T16:12:29.410Z,18.94
2023-05-09T16:14:55.868Z,18.81
2023-05-09T16:17:22.302Z,18.73
2023-05-09T16:19:48.810Z,18.68
2023-05-09T16:22:15.295Z,18.62
2023-05-09T16:24:41.739Z,18.56
2023-05-09T16:27:08.226Z,18.50
2023-05-09T16:29:34.769Z,18.44
2023-05-09T16:32:01.405Z,18.36
2023-05-09T16:34:28.028Z,18.32
2023-05-09T16:36:54.484Z,18.25
2023-05-09T16:39:20.953Z,18.21
2023-05-09T16:41:47.433Z,18.16
2023-05-09T16:44:13.918Z,18.10
2023-05-09T16:46:40.392Z,18.07
2023-05-09T16:49:06.918Z,18.01
2023-05-09T16:51:33.374Z,17.94
2023-05-09T16:53:59.792Z,17.87
2023-05-09T16:56:26.290Z,17.82
2023-05-09T16:58:52.745Z,17.77
2023-05-09T17:01:19.341Z,17.69
2023-05-09T17:03:45.843Z,17.61
2023-05-09T17:06:12.333Z,17.53
2023-05-09T17:08:38.825Z,17.43
2023-05-09T17:11:05.325Z,17.33
2023-05-09T17:13:31.801Z,17.25
2023-05-09T17:15:58.329Z,17.18
2023-05-09T17:18:36.091Z,17.11
2023-05-09T17:21:03.992Z,17.05
2023-05-09T17:23:30.467Z,16.97
2023-05-09T17:25:56.906Z,16.91
2023-05-09T17:28:23.392Z,16.84
2023-05-09T17:30:49.907Z,16.77
2023-05-09T17:33:16.381Z,16.72
2023-05-09T17:35:42.861Z,16.67
2023-05-09T17:38:09.321Z,16.62
2023-05-09T17:40:38.450Z,16.56
2023-05-09T17:43:04.917Z,16.50
2023-05-09T17:45:31.418Z,16.43
2023-05-09T17:47:57.960Z,16.35
2023-05-09T17:50:24.426Z,16.28
2023-05-09T17:52:50.917Z,16.18
2023-05-09T17:55:18.139Z,16.11
2023-05-09T17:57:44.755Z,16.02
2023-05-09T18:00:11.764Z,15.96
2023-05-09T18:02:38.909Z,15.90
2023-05-09T18:05:08.266Z,15.83
2023-05-09T18:07:34.964Z,15.73
2023-05-09T18:10:01.648Z,15.67
2023-05-09T18:12:28.130Z,15.59
2023-05-09T18:14:55.291Z,15.53
2023-05-09T18:17:21.928Z,15.46
2023-05-09T18:19:48.410Z,15.38
2023-05-09T18:22:17.875Z,15.30
2023-05-09T18:24:44.440Z,15.23
2023-05-09T18:27:10.926Z,15.18
2023-05-09T18:29:37.570Z,15.12
2023-05-09T18:32:04.135Z,15.07
2023-05-09T18:34:30.948Z,15.02
2023-05-09T18:36:57.420Z,14.98
2023-05-09T18:39:23.873Z,14.92
2023-05-09T18:41:50.328Z,14.86
2023-05-09T18:44:16.875Z,14.81
2023-05-09T18:46:43.396Z,14.75
2023-05-09T18:49:09.893Z,14.69
2023-05-09T18:51:36.386Z,14.63
2023-05-09T18:54:02.883Z,14.57
2023-05-09T18:56:29.480Z,14.51
2023-05-09T18:58:56.143Z,14.46
2023-05-09T19:01:22.879Z,14.41
2023-05-09T19:03:49.431Z,14.35
2023-05-09T19:06:16.007Z,14.29
2023-05-09T19:08:43.439Z,14.22
2023-05-09T19:11:10.354Z,14.17
2023-05-09T19:13:37.184Z,14.11
2023-05-09T19:16:07.991Z,14.05
2023-05-09T19:18:34.674Z,14.00
2023-05-09T19:21:01.240Z,13.95
2023-05-09T19:23:27.751Z,13.89
2023-05-09T19:25:54.469Z,13.82
2023-05-09T19:28:21.452Z,13.77
2023-05-09T19:30:48.007Z,13.73
2023-05-09T19:33:14.559Z,13.70
2023-05-09T19:35:41.875Z,13.67
2023-05-09T19:38:08.605Z,13.64
2023-05-09T19:40:35.201Z,13.60
2023-05-09T19:43:01.861Z,13.55
2023-05-09T19:45:28.405Z,13.51
2023-05-09T19:47:55.031Z,13.48
2023-05-09T19:50:21.989Z,13.44
2023-05-09T19:52:48.576Z,13.40
2023-05-09T19:55:15.153Z,13.36
2023-05-09T19:57:41.628Z,13.31
2023-05-09T20:00:08.703Z,13.28
2023-05-09T20:02:35.351Z,13.25
2023-05-09T20:05:01.968Z,13.23
2023-05-09T20:07:28.457Z,13.21
2023-05-09T20:09:54.880Z,13.18
2023-05-09T20:12:21.352Z,13.17
2023-05-09T20:14:47.859Z,13.16
2023-05-09T20:17:14.298Z,13.15
2023-05-09T20:19:40.774Z,13.14
2023-05-09T20:22:07.226Z,13.12
2023-05-09T20:24:33.726Z,13.10
2023-05-09T20:27:00.312Z,13.09
2023-05-09T20:29:26.844Z,13.08
2023-05-09T20:31:53.352Z,13.06
2023-05-09T20:34:20.251Z,13.05
2023-05-09T20:36:48.061Z,13.03
2023-05-09T20:39:14.513Z,13.02
2023-05-09T20:41:40.964Z,13.01
2023-05-09T20:44:07.536Z,12.98
2023-05-09T20:46:34.033Z,12.96
2023-05-09T20:49:00.636Z,12.94
2023-05-09T20:51:27.090Z,12.92
2023-05-09T20:53:53.548Z,12.90
2023-05-09T20:56:20.028Z,12.87
2023-05-09T20:58:46.503Z,12.84
2023-05-09T21:01:12.991Z,12.81
2023-05-09T21:03:39.508Z,12.79
2023-05-09T21:06:06.032Z,12.77
2023-05-09T21:08:32.489Z,12.75
2023-05-09T21:10:58.991Z,12.73
2023-05-09T21:13:25.589Z,12.72
2023-05-09T21:15:52.243Z,12.69
2023-05-09T21:18:18.940Z,12.67
2023-05-09T21:20:45.445Z,12.68
2023-05-09T21:23:12.173Z,12.67
2023-05-09T21:25:38.624Z,12.65
2023-05-09T21:28:05.269Z,12.64
2023-05-09T21:30:31.772Z,12.64
2023-05-09T21:32:58.226Z,12.64
2023-05-09T21:35:24.795Z,12.64
2023-05-09T21:37:51.226Z,12.63
2023-05-09T21:40:18.124Z,12.62
2023-05-09T21:42:44.730Z,12.61
2023-05-09T21:45:11.441Z,12.60
2023-05-09T21:47:38.270Z,12.58
2023-05-09T21:50:05.746Z,12.57
2023-05-09T21:52:32.243Z,12.55
2023-05-09T21:54:59.317Z,12.54
2023-05-09T21:57:25.790Z,12.52
2023-05-09T21:59:52.227Z,12.52
2023-05-09T22:02:18.781Z,12.51
2023-05-09T22:04:45.380Z,12.51
2023-05-09T22:07:12.704Z,12.51
2023-05-09T22:09:39.154Z,12.52
2023-05-09T22:12:05.777Z,12.52
2023-05-09T22:14:33.534Z,12.53
2023-05-09T22:17:03.569Z,12.54
2023-05-09T22:19:30.270Z,12.56
2023-05-09T22:21:56.754Z,12.58
2023-05-09T22:24:23.219Z,12.59
2023-05-09T22:26:49.680Z,12.62
2023-05-09T22:29:16.281Z,12.64
2023-05-09T22:31:42.811Z,12.67
2023-05-09T22:34:09.560Z,12.68
2023-05-09T22:36:36.063Z,12.69
2023-05-09T22:39:02.559Z,12.70
2023-05-09T22:41:29.076Z,12.70
2023-05-09T22:43:55.525Z,12.71
2023-05-09T22:46:22.110Z,12.71
2023-05-09T22:48:48.590Z,12.71
2023-05-09T22:51:15.177Z,12.70
2023-05-09T22:53:41.673Z,12.70
2023-05-09T22:56:08.201Z,12.70
2023-05-09T22:58:34.980Z,12.70
2023-05-09T23:01:01.514Z,12.69
2023-05-09T23:03:28.104Z,12.68
2023-05-09T23:05:54.652Z,12.65
2023-05-09T23:08:21.120Z,12.62
2023-05-09T23:10:47.590Z,12.59
2023-05-09T23:13:14.070Z,12.55
2023-05-09T23:15:40.601Z,12.53
2023-05-09T23:18:07.280Z,12.50
2023-05-09T23:20:33.767Z,12.46
2023-05-09T23:23:00.227Z,12.40
2023-05-09T23:25:26.680Z,12.36
2023-05-09T23:27:53.199Z,12.31
2023-05-09T23:30:19.642Z,12.26
2023-05-09T23:32:46.249Z,12.22
2023-05-09T23:35:12.806Z,12.20
2023-05-09T23:37:39.325Z,12.15
2023-05-09T23:40:06.419Z,12.12
2023-05-09T23:42:32.895Z,12.09
2023-05-09T23:44:59.382Z,12.05
2023-05-09T23:47:25.925Z,12.01
2023-05-09T23:49:52.441Z,11.98
2023-05-09T23:52:18.902Z,11.95
2023-05-09T23:54:45.401Z,11.92
2023-05-09T23:57:11.904Z,11.89
2023-05-09T23:59:38.385Z,11.85
